createdAt,value
2023-03-29T00:01:34.988Z,6.47
2023-03-29T00:04:07.092Z,6.10
2023-03-29T00:06:34.768Z,4.72
2023-03-29T00:09:05.332Z,4.93
2023-03-29T00:11:32.604Z,5.72
2023-03-29T00:13:59.779Z,3.88
2023-03-29T00:16:27.139Z,5.10
2023-03-29T00:18:54.471Z,6.55
2023-03-29T00:21:21.698Z,4.63
2023-03-29T00:23:48.981Z,5.07
2023-03-29T00:26:16.339Z,4.75
2023-03-29T00:28:43.455Z,6.40
2023-03-29T00:31:12.229Z,6.47
2023-03-29T00:33:40.318Z,7.18
2023-03-29T00:36:08.593Z,5.07
2023-03-29T00:38:36.205Z,5.03
2023-03-29T00:41:04.483Z,5.57
2023-03-29T00:43:32.098Z,5.68
2023-03-29T00:45:59.358Z,5.22
2023-03-29T00:48:30.298Z,5.50
2023-03-29T00:51:03.869Z,6.47
2023-03-29T00:53:34.416Z,5.97
2023-03-29T00:56:10.130Z,4.78
2023-03-29T00:58:59.227Z,6.47
2023-03-29T01:01:34.151Z,5.65
2023-03-29T01:04:03.986Z,4.13
2023-03-29T01:06:34.474Z,4.63
2023-03-29T01:09:03.525Z,6.15
2023-03-29T01:11:47.013Z,7.00
2023-03-29T01:14:33.816Z,4.35
2023-03-29T01:17:00.997Z,5.53
2023-03-29T01:19:30.456Z,5.05
2023-03-29T01:22:10.626Z,6.00
2023-03-29T01:24:38.131Z,5.28
2023-03-29T01:27:25.732Z,7.05
2023-03-29T01:29:57.308Z,5.20
2023-03-29T01:32:37.556Z,4.93
2023-03-29T01:35:10.246Z,5.88
2023-03-29T01:37:39.570Z,4.70
2023-03-29T01:40:07.031Z,8.00
2023-03-29T01:42:43.241Z,6.75
2023-03-29T01:45:10.669Z,6.18
2023-03-29T01:47:45.531Z,6.78
2023-03-29T01:50:23.367Z,6.60
2023-03-29T01:53:02.795Z,6.03
2023-03-29T01:55:33.038Z,4.57
2023-03-29T01:58:01.863Z,5.80
2023-03-29T02:00:30.165Z,5.43
2023-03-29T02:03:00.372Z,7.18
2023-03-29T02:05:29.048Z,4.57
2023-03-29T02:07:56.548Z,6.75
2023-03-29T02:10:24.055Z,5.75
2023-03-29T02:12:51.287Z,5.47
2023-03-29T02:15:20.436Z,7.28
2023-03-29T02:17:49.389Z,6.88
2023-03-29T02:20:20.643Z,6.45
2023-03-29T02:22:50.648Z,8.35
2023-03-29T02:25:18.113Z,6.22
2023-03-29T02:27:45.573Z,5.88
2023-03-29T02:30:14.488Z,8.93
2023-03-29T02:32:45.913Z,6.68
2023-03-29T02:35:22.935Z,6.38
2023-03-29T02:37:54.481Z,6.13
2023-03-29T02:40:22.623Z,5.57
2023-03-29T02:42:50.021Z,7.65
2023-03-29T02:45:18.123Z,5.18
2023-03-29T02:47:47.302Z,5.97
2023-03-29T02:50:14.885Z,5.47
2023-03-29T02:52:44.881Z,6.78
2023-03-29T02:55:15.069Z,5.53
2023-03-29T02:57:43.869Z,5.28
2023-03-29T03:00:12.144Z,7.78
2023-03-29T03:02:39.551Z,7.40
2023-03-29T03:05:07.087Z,6.13
2023-03-29T03:07:34.305Z,6.13
2023-03-29T03:10:01.884Z,7.10
2023-03-29T03:12:29.066Z,6.35
2023-03-29T03:14:56.221Z,7.13
2023-03-29T03:17:23.449Z,7.70
2023-03-29T03:19:50.827Z,5.60
2023-03-29T03:22:18.385Z,6.15
2023-03-29T03:24:46.217Z,5.88
2023-03-29T03:27:13.668Z,5.72
2023-03-29T03:29:41.499Z,5.95
2023-03-29T03:32:08.896Z,5.50
2023-03-29T03:34:36.236Z,6.25
2023-03-29T03:37:03.380Z,7.25
2023-03-29T03:39:30.566Z,7.25
2023-03-29T03:41:57.808Z,7.35
2023-03-29T03:44:25.014Z,6.18
2023-03-29T03:46:52.146Z,7.00
2023-03-29T03:49:19.332Z,7.03
2023-03-29T03:51:47.069Z,8.55
2023-03-29T03:54:16.341Z,6.55
2023-03-29T03:56:43.657Z,6.13
2023-03-29T03:59:11.023Z,6.15
2023-03-29T04:01:43.406Z,7.55
2023-03-29T04:04:11.304Z,6.03
2023-03-29T04:06:41.180Z,6.72
2023-03-29T04:09:11.524Z,9.15
2023-03-29T04:11:38.757Z,6.38
2023-03-29T04:14:05.956Z,6.57
2023-03-29T04:16:33.163Z,8.20
2023-03-29T04:19:00.775Z,5.78
2023-03-29T04:21:27.997Z,6.13
2023-03-29T04:23:55.307Z,8.00
2023-03-29T04:26:22.905Z,7.05
2023-03-29T04:28:50.125Z,6.60
2023-03-29T04:31:17.343Z,6.95
2023-03-29T04:33:46.781Z,5.95
2023-03-29T04:36:15.865Z,6.70
2023-03-29T04:38:47.349Z,6.32
2023-03-29T04:41:15.492Z,7.95
2023-03-29T04:43:46.413Z,4.63
2023-03-29T04:46:17.090Z,7.00
2023-03-29T04:48:44.372Z,6.32
2023-03-29T04:51:11.651Z,6.20
2023-03-29T04:53:38.895Z,5.93
2023-03-29T04:56:06.627Z,7.70
2023-03-29T04:58:33.841Z,4.82
2023-03-29T05:01:01.220Z,7.45
2023-03-29T05:03:28.643Z,6.78
2023-03-29T05:05:55.996Z,7.20
2023-03-29T05:08:23.206Z,8.13
2023-03-29T05:10:50.791Z,7.03
2023-03-29T05:13:17.970Z,7.20
2023-03-29T05:15:45.274Z,6.07
2023-03-29T05:18:12.528Z,6.65
2023-03-29T05:20:40.517Z,6.32
2023-03-29T05:23:07.642Z,6.90
2023-03-29T05:25:35.001Z,6.60
2023-03-29T05:28:02.384Z,6.97
2023-03-29T05:30:29.680Z,7.97
2023-03-29T05:32:56.922Z,7.07
2023-03-29T05:35:26.111Z,6.15
2023-03-29T05:37:53.848Z,7.55
2023-03-29T05:40:21.017Z,8.00
2023-03-29T05:42:48.250Z,5.18
2023-03-29T05:45:15.485Z,6.60
2023-03-29T05:47:42.869Z,5.13
2023-03-29T05:50:13.761Z,6.57
2023-03-29T05:52:41.147Z,7.75
2023-03-29T05:55:08.836Z,6.47
2023-03-29T05:57:37.624Z,6.40
2023-03-29T06:00:15.716Z,6.68
2023-03-29T06:02:43.839Z,6.78
2023-03-29T06:05:11.118Z,7.13
2023-03-29T06:07:38.394Z,6.43
2023-03-29T06:10:06.269Z,6.55
2023-03-29T06:12:33.460Z,7.65
2023-03-29T06:15:04.972Z,7.82
2023-03-29T06:17:33.824Z,7.57
2023-03-29T06:20:01.530Z,7.05
2023-03-29T06:22:28.709Z,7.38
2023-03-29T06:24:55.854Z,7.35
2023-03-29T06:27:23.557Z,7.03
2023-03-29T06:29:50.703Z,8.52
2023-03-29T06:32:17.825Z,9.93
2023-03-29T06:34:45.029Z,7.75
2023-03-29T06:37:12.908Z,8.98
2023-03-29T06:39:41.024Z,6.78
2023-03-29T06:42:19.962Z,9.65
2023-03-29T06:44:49.463Z,7.32
2023-03-29T06:47:17.531Z,10.18
2023-03-29T06:49:44.725Z,9.70
2023-03-29T06:52:12.193Z,9.75
2023-03-29T06:54:39.428Z,8.20
2023-03-29T06:57:07.818Z,10.27
2023-03-29T06:59:35.660Z,9.25
2023-03-29T07:02:02.962Z,8.13
2023-03-29T07:04:32.243Z,9.35
2023-03-29T07:07:02.543Z,8.05
2023-03-29T07:09:30.357Z,8.40
2023-03-29T07:11:58.172Z,8.73
2023-03-29T07:14:30.798Z,9.00
2023-03-29T07:17:01.501Z,9.50
2023-03-29T07:19:30.205Z,7.88
2023-03-29T07:21:57.942Z,8.57
2023-03-29T07:24:25.180Z,7.63
2023-03-29T07:27:03.190Z,10.52
2023-03-29T07:29:31.976Z,7.85
2023-03-29T07:31:59.163Z,8.43
2023-03-29T07:34:27.147Z,7.67
2023-03-29T07:36:54.678Z,9.82
2023-03-29T07:39:22.410Z,9.30
2023-03-29T07:41:49.603Z,7.43
2023-03-29T07:44:18.371Z,7.55
2023-03-29T07:46:45.602Z,8.40
2023-03-29T07:49:12.852Z,8.68
2023-03-29T07:51:40.019Z,9.13
2023-03-29T07:54:07.819Z,9.80
2023-03-29T07:56:34.998Z,8.93
2023-03-29T07:59:02.173Z,7.53
2023-03-29T08:01:29.474Z,9.25
2023-03-29T08:03:56.903Z,9.50
2023-03-29T08:06:26.620Z,8.75
2023-03-29T08:08:54.119Z,10.65
2023-03-29T08:11:21.363Z,10.17
2023-03-29T08:13:48.554Z,8.52
2023-03-29T08:16:15.744Z,10.73
2023-03-29T08:18:42.879Z,9.43
2023-03-29T08:21:10.410Z,8.98
2023-03-29T08:23:37.604Z,11.30
2023-03-29T08:26:04.871Z,10.95
2023-03-29T08:28:32.286Z,10.85
2023-03-29T08:31:00.068Z,11.10
2023-03-29T08:33:27.742Z,10.68
2023-03-29T08:35:54.943Z,12.27
2023-03-29T08:38:22.593Z,9.77
2023-03-29T08:40:50.193Z,9.85
2023-03-29T08:43:27.288Z,11.70
2023-03-29T08:46:23.846Z,12.35
2023-03-29T08:48:56.549Z,10.17
2023-03-29T08:51:30.550Z,13.52
2023-03-29T08:54:00.644Z,12.20
2023-03-29T08:56:31.505Z,12.15
2023-03-29T08:59:01.324Z,11.43
2023-03-29T09:01:31.733Z,11.70
2023-03-29T09:04:08.790Z,12.75
2023-03-29T09:06:36.570Z,12.05
2023-03-29T09:09:03.821Z,11.55
2023-03-29T09:11:50.019Z,14.73
2023-03-29T09:14:25.872Z,11.93
2023-03-29T09:17:02.143Z,10.50
2023-03-29T09:19:38.332Z,13.98
2023-03-29T09:22:19.696Z,11.73
2023-03-29T09:24:56.316Z,12.80
2023-03-29T09:27:50.400Z,9.80
2023-03-29T09:30:27.089Z,10.50
2023-03-29T09:32:59.952Z,11.32
2023-03-29T09:35:29.959Z,11.73
2023-03-29T09:37:57.687Z,13.63
2023-03-29T09:40:39.480Z,13.43
2023-03-29T09:43:09.996Z,13.57
2023-03-29T09:45:38.892Z,13.52
2023-03-29T09:48:10.817Z,11.07
2023-03-29T09:50:39.237Z,12.20
2023-03-29T09:53:06.452Z,13.43
2023-03-29T09:55:37.125Z,13.15
2023-03-29T09:58:18.113Z,12.77
2023-03-29T10:00:45.892Z,13.85
2023-03-29T10:03:24.624Z,12.30
2023-03-29T10:05:53.338Z,17.30
2023-03-29T10:08:27.239Z,16.10
2023-03-29T10:10:54.846Z,13.60
2023-03-29T10:13:30.992Z,13.45
2023-03-29T10:16:03.533Z,14.95
2023-03-29T10:18:34.504Z,14.97
2023-03-29T10:21:03.760Z,12.30
2023-03-29T10:23:32.839Z,14.32
2023-03-29T10:26:00.162Z,12.93
2023-03-29T10:28:27.862Z,14.35
2023-03-29T10:30:56.356Z,15.67
2023-03-29T10:33:24.673Z,13.60
2023-03-29T10:35:52.189Z,14.70
2023-03-29T10:38:20.912Z,15.27
2023-03-29T10:40:49.434Z,12.63
2023-03-29T10:43:22.933Z,11.50
2023-03-29T10:45:51.324Z,16.40
2023-03-29T10:48:19.531Z,12.80
2023-03-29T10:50:52.974Z,11.77
2023-03-29T10:53:28.632Z,15.57
2023-03-29T10:56:05.068Z,16.97
2023-03-29T10:58:32.554Z,12.35
2023-03-29T11:00:59.950Z,14.27
2023-03-29T11:03:40.637Z,13.90
2023-03-29T11:06:26.098Z,13.07
2023-03-29T11:09:01.355Z,16.03
2023-03-29T11:11:37.673Z,16.38
2023-03-29T11:14:18.003Z,15.10
2023-03-29T11:16:45.460Z,15.32
2023-03-29T11:19:33.236Z,16.00
2023-03-29T11:22:17.672Z,15.87
2023-03-29T11:24:51.082Z,17.33
2023-03-29T11:27:42.027Z,14.00
2023-03-29T11:30:09.265Z,17.58
2023-03-29T11:32:46.019Z,15.23
2023-03-29T11:35:32.140Z,15.23
2023-03-29T11:38:03.295Z,16.50
2023-03-29T11:40:49.549Z,17.00
2023-03-29T11:43:25.910Z,17.52
2023-03-29T11:45:55.968Z,19.52
2023-03-29T11:48:27.879Z,24.00
2023-03-29T11:51:11.479Z,22.38
2023-03-29T11:53:57.596Z,17.90
2023-03-29T11:56:36.988Z,15.05
2023-03-29T11:59:11.475Z,15.90
2023-03-29T12:01:42.544Z,19.20
2023-03-29T12:04:17.794Z,19.23
2023-03-29T12:06:49.282Z,17.98
2023-03-29T12:09:16.894Z,19.45
2023-03-29T12:11:51.932Z,20.70
2023-03-29T12:14:23.420Z,19.50
2023-03-29T12:17:03.186Z,19.52
2023-03-29T12:19:46.112Z,19.42
2023-03-29T12:22:13.290Z,18.15
2023-03-29T12:24:42.888Z,19.13
2023-03-29T12:27:19.983Z,19.23
2023-03-29T12:30:06.463Z,18.58
2023-03-29T12:32:33.761Z,18.33
2023-03-29T12:35:01.360Z,19.42
2023-03-29T12:37:35.956Z,27.13
2023-03-29T12:40:22.292Z,20.13
2023-03-29T12:43:04.158Z,17.80
2023-03-29T12:45:37.739Z,20.55
2023-03-29T12:48:05.084Z,20.33
2023-03-29T12:50:34.610Z,18.42
2023-03-29T12:53:28.096Z,19.77
2023-03-29T12:56:08.558Z,20.60
2023-03-29T12:58:51.093Z,19.20
2023-03-29T13:01:27.514Z,20.10
2023-03-29T13:04:13.714Z,18.55
2023-03-29T13:06:47.085Z,18.63
2023-03-29T13:09:22.032Z,19.23
2023-03-29T13:11:53.314Z,17.90
2023-03-29T13:14:21.998Z,16.98
2023-03-29T13:16:49.430Z,17.13
2023-03-29T13:19:23.914Z,15.83
2023-03-29T13:22:06.579Z,15.75
2023-03-29T13:24:56.788Z,16.63
2023-03-29T13:27:43.129Z,18.30
2023-03-29T13:30:29.440Z,19.00
2023-03-29T13:33:06.520Z,19.93
2023-03-29T13:35:52.428Z,19.98
2023-03-29T13:38:22.007Z,19.58
2023-03-29T13:40:52.877Z,21.08
2023-03-29T13:43:20.916Z,17.33
2023-03-29T13:45:57.278Z,17.97
2023-03-29T13:48:33.698Z,16.98
2023-03-29T13:51:36.756Z,18.42
2023-03-29T13:54:08.195Z,19.58
2023-03-29T13:56:39.556Z,18.58
2023-03-29T13:59:17.713Z,20.07
2023-03-29T14:01:50.437Z,16.45
2023-03-29T14:04:28.526Z,15.88
2023-03-29T14:06:56.911Z,15.30
2023-03-29T14:09:30.156Z,16.85
2023-03-29T14:11:57.661Z,16.47
2023-03-29T14:14:26.922Z,15.77
2023-03-29T14:16:55.925Z,17.92
2023-03-29T14:19:31.025Z,17.10
2023-03-29T14:21:59.028Z,17.52
2023-03-29T14:24:27.184Z,15.80
2023-03-29T14:26:54.846Z,16.15
2023-03-29T14:29:24.359Z,15.73
2023-03-29T14:31:52.842Z,15.48
2023-03-29T14:34:20.251Z,15.63
2023-03-29T14:36:49.081Z,11.50
2023-03-29T14:39:21.396Z,14.80
2023-03-29T14:41:53.208Z,12.85
2023-03-29T14:44:25.934Z,12.20
2023-03-29T14:46:53.924Z,12.95
2023-03-29T14:49:22.888Z,12.00
2023-03-29T14:51:50.423Z,11.18
2023-03-29T14:54:20.804Z,11.95
2023-03-29T14:56:48.864Z,10.63
2023-03-29T14:59:29.910Z,9.98
2023-03-29T15:01:57.343Z,10.57
2023-03-29T15:04:24.577Z,11.52
2023-03-29T15:06:52.736Z,10.52
2023-03-29T15:09:23.617Z,10.50
2023-03-29T15:11:51.913Z,9.50
2023-03-29T15:14:20.159Z,10.37
2023-03-29T15:16:47.733Z,10.38
2023-03-29T15:19:17.152Z,10.73
2023-03-29T15:21:45.214Z,8.30
2023-03-29T15:24:21.297Z,8.43
2023-03-29T15:26:58.537Z,9.00
2023-03-29T15:29:34.007Z,9.38
2023-03-29T15:32:02.244Z,10.55
2023-03-29T15:34:30.435Z,9.82
2023-03-29T15:37:00.507Z,10.95
2023-03-29T15:39:28.752Z,10.20
2023-03-29T15:41:56.882Z,15.45
2023-03-29T15:44:27.841Z,13.02
2023-03-29T15:46:55.441Z,9.50
2023-03-29T15:49:22.826Z,9.10
2023-03-29T15:51:50.329Z,9.73
2023-03-29T15:54:17.548Z,9.25
2023-03-29T15:56:50.126Z,9.32
2023-03-29T15:59:18.087Z,10.13
2023-03-29T16:01:46.921Z,9.18
2023-03-29T16:04:16.011Z,7.30
2023-03-29T16:06:43.927Z,9.07
2023-03-29T16:09:11.983Z,12.52
2023-03-29T16:11:40.411Z,9.07
2023-03-29T16:14:11.734Z,9.07
2023-03-29T16:16:38.888Z,9.87
2023-03-29T16:19:06.526Z,9.50
2023-03-29T16:21:34.024Z,7.78
2023-03-29T16:24:01.656Z,7.57
2023-03-29T16:26:30.284Z,11.82
2023-03-29T16:28:57.420Z,7.13
2023-03-29T16:31:26.892Z,8.10
2023-03-29T16:33:54.154Z,8.70
2023-03-29T16:36:21.414Z,8.50
2023-03-29T16:38:48.599Z,6.20
2023-03-29T16:41:16.537Z,9.90
2023-03-29T16:43:44.070Z,8.82
2023-03-29T16:46:11.935Z,8.32
2023-03-29T16:48:39.403Z,7.63
2023-03-29T16:51:07.524Z,10.00
2023-03-29T16:53:35.619Z,8.60
2023-03-29T16:56:03.413Z,7.43
2023-03-29T16:58:30.908Z,8.20
2023-03-29T17:00:58.384Z,6.90
2023-03-29T17:03:25.738Z,8.75
2023-03-29T17:05:54.559Z,7.57
2023-03-29T17:08:22.292Z,6.97
2023-03-29T17:10:53.516Z,7.03
2023-03-29T17:13:21.271Z,9.23
2023-03-29T17:15:52.100Z,7.90
2023-03-29T17:18:19.925Z,9.13
2023-03-29T17:20:47.335Z,8.38
2023-03-29T17:23:16.834Z,7.47
2023-03-29T17:25:46.088Z,8.65
2023-03-29T17:28:13.326Z,6.55
2023-03-29T17:30:40.834Z,6.63
2023-03-29T17:33:08.195Z,7.95
2023-03-29T17:35:35.723Z,7.85
2023-03-29T17:38:03.011Z,7.32
2023-03-29T17:40:30.350Z,7.53
2023-03-29T17:42:57.489Z,8.13
2023-03-29T17:45:24.708Z,8.32
2023-03-29T17:47:51.985Z,8.73
2023-03-29T17:50:19.402Z,6.60
2023-03-29T17:52:46.621Z,7.00
2023-03-29T17:55:13.848Z,6.37
2023-03-29T17:57:41.773Z,6.82
2023-03-29T18:00:10.750Z,7.15
2023-03-29T18:02:38.197Z,7.20
2023-03-29T18:05:05.901Z,9.18
2023-03-29T18:07:33.130Z,8.27
2023-03-29T18:10:00.366Z,9.43
2023-03-29T18:12:27.893Z,12.30
2023-03-29T18:14:56.878Z,20.35
2023-03-29T18:17:24.799Z,23.25
2023-03-29T18:19:52.115Z,18.90
2023-03-29T18:22:19.789Z,14.52
2023-03-29T18:24:48.199Z,12.95
2023-03-29T18:27:16.007Z,10.15
2023-03-29T18:29:44.612Z,11.25
2023-03-29T18:32:11.934Z,9.10
2023-03-29T18:34:39.446Z,8.43
2023-03-29T18:37:07.437Z,9.32
2023-03-29T18:39:35.901Z,8.93
2023-03-29T18:42:03.178Z,8.23
2023-03-29T18:44:30.454Z,10.43
2023-03-29T18:46:57.616Z,8.18
2023-03-29T18:49:25.801Z,8.80
2023-03-29T18:51:55.226Z,9.73
2023-03-29T18:54:22.384Z,10.55
2023-03-29T18:56:49.609Z,7.73
2023-03-29T18:59:17.194Z,10.07
2023-03-29T19:01:45.201Z,10.68
2023-03-29T19:04:13.397Z,9.80
2023-03-29T19:06:42.521Z,9.27
2023-03-29T19:09:12.659Z,9.33
2023-03-29T19:11:39.894Z,9.52
2023-03-29T19:14:09.176Z,10.63
2023-03-29T19:16:36.806Z,9.00
2023-03-29T19:19:05.808Z,8.98
2023-03-29T19:21:33.418Z,9.63
2023-03-29T19:24:03.888Z,8.27
2023-03-29T19:26:33.294Z,9.02
2023-03-29T19:29:01.139Z,9.23
2023-03-29T19:31:28.434Z,9.90
2023-03-29T19:33:55.896Z,11.70
2023-03-29T19:36:23.132Z,10.88
2023-03-29T19:38:50.498Z,9.77
2023-03-29T19:41:17.786Z,10.85
2023-03-29T19:43:45.029Z,10.73
2023-03-29T19:46:13.515Z,9.50
2023-03-29T19:48:41.025Z,8.35
2023-03-29T19:51:08.854Z,11.00
2023-03-29T19:53:38.732Z,8.63
2023-03-29T19:56:07.699Z,10.27
2023-03-29T19:58:35.577Z,9.73
2023-03-29T20:01:03.030Z,10.60
2023-03-29T20:03:34.201Z,10.45
2023-03-29T20:06:02.002Z,10.07
2023-03-29T20:08:31.408Z,11.00
2023-03-29T20:11:10.140Z,9.60
2023-03-29T20:13:44.667Z,8.27
2023-03-29T20:16:13.348Z,10.07
2023-03-29T20:18:40.925Z,11.00
2023-03-29T20:21:08.782Z,9.38
2023-03-29T20:23:36.451Z,11.00
2023-03-29T20:26:03.980Z,11.88
2023-03-29T20:28:31.538Z,10.18
2023-03-29T20:31:03.487Z,9.82
2023-03-29T20:33:30.961Z,9.70
2023-03-29T20:35:59.710Z,8.93
2023-03-29T20:38:26.933Z,8.80
2023-03-29T20:40:55.276Z,11.10
2023-03-29T20:43:22.568Z,10.05
2023-03-29T20:45:53.418Z,8.73
2023-03-29T20:48:23.271Z,9.50
2023-03-29T20:50:51.482Z,11.10
2023-03-29T20:53:20.321Z,8.98
2023-03-29T20:55:47.984Z,9.80
2023-03-29T20:58:15.788Z,10.88
2023-03-29T21:00:43.660Z,11.40
2023-03-29T21:03:11.216Z,11.00
2023-03-29T21:05:39.116Z,10.73
2023-03-29T21:08:06.461Z,9.57
2023-03-29T21:10:33.723Z,9.63
2023-03-29T21:13:02.436Z,9.90
2023-03-29T21:15:30.947Z,9.25
2023-03-29T21:17:58.405Z,11.27
2023-03-29T21:20:25.782Z,9.32
2023-03-29T21:22:52.915Z,11.05
2023-03-29T21:25:20.303Z,9.67
2023-03-29T21:27:47.710Z,9.02
2023-03-29T21:30:14.946Z,9.95
2023-03-29T21:32:42.210Z,9.05
2023-03-29T21:35:09.852Z,9.75
2023-03-29T21:37:37.230Z,10.57
2023-03-29T21:40:10.353Z,8.68
2023-03-29T21:42:37.593Z,8.93
2023-03-29T21:45:05.276Z,7.97
2023-03-29T21:47:32.594Z,8.75
2023-03-29T21:49:59.834Z,12.00
2023-03-29T21:52:27.078Z,9.55
2023-03-29T21:54:59.766Z,8.05
2023-03-29T21:57:26.901Z,11.15
2023-03-29T21:59:56.487Z,10.30
2023-03-29T22:02:23.741Z,10.77
2023-03-29T22:04:50.924Z,10.35
2023-03-29T22:07:18.118Z,10.63
2023-03-29T22:09:46.521Z,8.77
2023-03-29T22:12:13.709Z,9.07
2023-03-29T22:14:40.906Z,8.07
2023-03-29T22:17:08.246Z,9.35
2023-03-29T22:19:39.719Z,10.00
2023-03-29T22:22:13.345Z,8.73
2023-03-29T22:24:41.378Z,10.38
2023-03-29T22:27:08.552Z,8.53
2023-03-29T22:29:35.852Z,7.28
2023-03-29T22:32:03.170Z,10.45
2023-03-29T22:34:30.473Z,8.07
2023-03-29T22:36:57.657Z,10.63
2023-03-29T22:39:24.768Z,8.53
2023-03-29T22:41:51.949Z,7.35
2023-03-29T22:44:19.127Z,8.82
2023-03-29T22:46:46.727Z,8.40
2023-03-29T22:49:13.941Z,8.45
2023-03-29T22:51:41.159Z,9.63
2023-03-29T22:54:08.377Z,7.25
2023-03-29T22:56:35.885Z,8.75
2023-03-29T22:59:03.078Z,7.28
2023-03-29T23:01:30.335Z,9.50
2023-03-29T23:03:57.546Z,9.27
2023-03-29T23:06:24.725Z,7.57
2023-03-29T23:08:51.886Z,7.28
2023-03-29T23:11:19.046Z,8.90
2023-03-29T23:13:48.708Z,6.70
2023-03-29T23:16:16.345Z,9.57
2023-03-29T23:18:43.679Z,10.02
2023-03-29T23:21:10.864Z,11.02
2023-03-29T23:23:38.363Z,10.73
2023-03-29T23:26:05.686Z,8.75
2023-03-29T23:28:34.670Z,10.67
2023-03-29T23:31:06.885Z,7.13
2023-03-29T23:33:35.463Z,9.88
2023-03-29T23:36:04.162Z,10.15
2023-03-29T23:38:31.917Z,10.15
2023-03-29T23:41:00.291Z,12.33
2023-03-29T23:43:31.727Z,9.15
2023-03-29T23:46:03.294Z,7.20
2023-03-29T23:48:31.568Z,9.40
2023-03-29T23:50:59.047Z,12.18
2023-03-29T23:53:28.467Z,6.93
2023-03-29T23:56:00.411Z,7.03
2023-03-29T23:58:33.710Z,7.72
